sensor_id;sensor_type;location;lat;lon;timestamp;temperature;humidity
51739;DHT22;37815;52.692;6.226;2023-10-13T00:02:28;17.70;99.50
51739;DHT22;37815;52.692;6.226;2023-10-13T00:07:28;17.70;99.50
51739;DHT22;37815;52.692;6.226;2023-10-13T00:12:29;17.70;99.50
51739;DHT22;37815;52.692;6.226;2023-10-13T00:17:32;17.70;99.60
51739;DHT22;37815;52.692;6.226;2023-10-13T00:22:33;17.70;99.60
51739;DHT22;37815;52.692;6.226;2023-10-13T00:27:34;17.70;99.60
51739;DHT22;37815;52.692;6.226;2023-10-13T00:32:36;17.70;99.60
51739;DHT22;37815;52.692;6.226;2023-10-13T00:37:40;17.70;99.50
51739;DHT22;37815;52.692;6.226;2023-10-13T00:42:44;17.90;99.60
51739;DHT22;37815;52.692;6.226;2023-10-13T00:47:51;17.90;99.60
51739;DHT22;37815;52.692;6.226;2023-10-13T00:52:58;18.00;99.70
51739;DHT22;37815;52.692;6.226;2023-10-13T00:57:59;17.80;99.60
51739;DHT22;37815;52.692;6.226;2023-10-13T01:03:04;17.80;99.60
51739;DHT22;37815;52.692;6.226;2023-10-13T01:08:07;17.80;99.60
51739;DHT22;37815;52.692;6.226;2023-10-13T01:13:12;17.80;99.80
51739;DHT22;37815;52.692;6.226;2023-10-13T01:18:13;17.80;99.60
51739;DHT22;37815;52.692;6.226;2023-10-13T01:23:14;17.80;99.60
51739;DHT22;37815;52.692;6.226;2023-10-13T01:28:24;17.80;99.60
51739;DHT22;37815;52.692;6.226;2023-10-13T01:33:25;17.80;99.60
51739;DHT22;37815;52.692;6.226;2023-10-13T01:38:29;17.90;99.70
51739;DHT22;37815;52.692;6.226;2023-10-13T01:43:33;17.80;99.60
51739;DHT22;37815;52.692;6.226;2023-10-13T01:48:37;17.80;99.60
51739;DHT22;37815;52.692;6.226;2023-10-13T01:53:40;17.80;99.70
51739;DHT22;37815;52.692;6.226;2023-10-13T01:58:44;17.90;99.70
51739;DHT22;37815;52.692;6.226;2023-10-13T02:03:48;17.90;99.70
51739;DHT22;37815;52.692;6.226;2023-10-13T02:08:49;17.90;99.70
51739;DHT22;37815;52.692;6.226;2023-10-13T02:13:52;17.90;99.70
51739;DHT22;37815;52.692;6.226;2023-10-13T02:18:56;17.90;99.80
51739;DHT22;37815;52.692;6.226;2023-10-13T02:23:58;17.90;99.80
51739;DHT22;37815;52.692;6.226;2023-10-13T02:29:04;17.90;99.80
51739;DHT22;37815;52.692;6.226;2023-10-13T02:34:14;17.90;99.80
51739;DHT22;37815;52.692;6.226;2023-10-13T02:39:15;17.90;99.70
51739;DHT22;37815;52.692;6.226;2023-10-13T02:44:16;17.90;99.80
51739;DHT22;37815;52.692;6.226;2023-10-13T02:49:31;17.90;99.80
51739;DHT22;37815;52.692;6.226;2023-10-13T02:54:37;17.90;99.80
51739;DHT22;37815;52.692;6.226;2023-10-13T02:59:47;17.90;99.80
51739;DHT22;37815;52.692;6.226;2023-10-13T03:04:48;17.90;99.80
51739;DHT22;37815;52.692;6.226;2023-10-13T03:09:49;17.90;99.80
51739;DHT22;37815;52.692;6.226;2023-10-13T03:14:53;17.90;99.90
51739;DHT22;37815;52.692;6.226;2023-10-13T03:20:11;17.90;99.90
51739;DHT22;37815;52.692;6.226;2023-10-13T03:25:16;17.90;99.90
51739;DHT22;37815;52.692;6.226;2023-10-13T03:30:28;17.90;99.90
51739;DHT22;37815;52.692;6.226;2023-10-13T03:35:36;17.90;99.90
51739;DHT22;37815;52.692;6.226;2023-10-13T03:40:49;18.00;99.90
51739;DHT22;37815;52.692;6.226;2023-10-13T03:45:56;18.00;99.90
51739;DHT22;37815;52.692;6.226;2023-10-13T03:51:08;18.00;99.90
51739;DHT22;37815;52.692;6.226;2023-10-13T03:56:15;18.00;99.90
51739;DHT22;37815;52.692;6.226;2023-10-13T04:01:16;18.00;99.90
51739;DHT22;37815;52.692;6.226;2023-10-13T04:06:17;17.90;99.90
51739;DHT22;37815;52.692;6.226;2023-10-13T04:11:18;18.00;99.90
51739;DHT22;37815;52.692;6.226;2023-10-13T04:16:38;18.10;99.90
51739;DHT22;37815;52.692;6.226;2023-10-13T04:21:51;18.00;99.90
51739;DHT22;37815;52.692;6.226;2023-10-13T04:26:58;18.00;99.90
51739;DHT22;37815;52.692;6.226;2023-10-13T04:32:15;18.00;99.90
51739;DHT22;37815;52.692;6.226;2023-10-13T04:37:20;18.00;99.90
51739;DHT22;37815;52.692;6.226;2023-10-13T04:42:29;18.00;99.90
51739;DHT22;37815;52.692;6.226;2023-10-13T04:47:49;18.00;99.90
51739;DHT22;37815;52.692;6.226;2023-10-13T04:52:57;18.00;99.90
51739;DHT22;37815;52.692;6.226;2023-10-13T04:58:13;18.00;99.90
51739;DHT22;37815;52.692;6.226;2023-10-13T05:03:32;18.00;99.90
51739;DHT22;37815;52.692;6.226;2023-10-13T05:08:52;18.00;99.90
51739;DHT22;37815;52.692;6.226;2023-10-13T05:14:11;18.00;99.90
51739;DHT22;37815;52.692;6.226;2023-10-13T05:19:30;18.00;99.90
51739;DHT22;37815;52.692;6.226;2023-10-13T05:24:50;18.00;99.90
51739;DHT22;37815;52.692;6.226;2023-10-13T05:30:10;18.00;99.90
51739;DHT22;37815;52.692;6.226;2023-10-13T05:35:31;18.00;99.90
51739;DHT22;37815;52.692;6.226;2023-10-13T05:41:03;18.00;99.90
51739;DHT22;37815;52.692;6.226;2023-10-13T05:46:22;18.00;99.90
51739;DHT22;37815;52.692;6.226;2023-10-13T05:51:27;18.00;99.90
51739;DHT22;37815;52.692;6.226;2023-10-13T05:56:34;18.00;99.90
51739;DHT22;37815;52.692;6.226;2023-10-13T06:01:53;18.00;99.90
51739;DHT22;37815;52.692;6.226;2023-10-13T06:07:12;18.00;99.90
51739;DHT22;37815;52.692;6.226;2023-10-13T06:12:32;18.10;99.90
51739;DHT22;37815;52.692;6.226;2023-10-13T06:17:51;18.10;99.90
51739;DHT22;37815;52.692;6.226;2023-10-13T06:23:11;18.00;99.90
51739;DHT22;37815;52.692;6.226;2023-10-13T06:28:30;18.00;99.90
51739;DHT22;37815;52.692;6.226;2023-10-13T06:33:43;18.00;99.90
51739;DHT22;37815;52.692;6.226;2023-10-13T06:38:45;18.00;99.90
51739;DHT22;37815;52.692;6.226;2023-10-13T06:43:55;18.00;99.90
51739;DHT22;37815;52.692;6.226;2023-10-13T06:49:05;18.00;99.90
51739;DHT22;37815;52.692;6.226;2023-10-13T06:54:06;18.00;99.90
51739;DHT22;37815;52.692;6.226;2023-10-13T06:59:27;18.00;99.90
51739;DHT22;37815;52.692;6.226;2023-10-13T07:04:33;18.10;99.90
51739;DHT22;37815;52.692;6.226;2023-10-13T07:09:33;18.10;99.90
51739;DHT22;37815;52.692;6.226;2023-10-13T07:14:34;18.10;99.90
51739;DHT22;37815;52.692;6.226;2023-10-13T07:19:35;18.10;99.90
51739;DHT22;37815;52.692;6.226;2023-10-13T07:24:46;18.10;99.90
51739;DHT22;37815;52.692;6.226;2023-10-13T07:29:59;18.10;99.90
51739;DHT22;37815;52.692;6.226;2023-10-13T07:35:16;18.20;99.90
51739;DHT22;37815;52.692;6.226;2023-10-13T07:40:21;18.10;99.90
51739;DHT22;37815;52.692;6.226;2023-10-13T07:45:25;18.10;99.90
51739;DHT22;37815;52.692;6.226;2023-10-13T07:50:34;18.30;99.90
51739;DHT22;37815;52.692;6.226;2023-10-13T07:55:36;18.10;99.90
51739;DHT22;37815;52.692;6.226;2023-10-13T08:00:39;18.10;99.90
51739;DHT22;37815;52.692;6.226;2023-10-13T08:05:44;18.10;99.90
51739;DHT22;37815;52.692;6.226;2023-10-13T08:11:08;18.20;99.90
51739;DHT22;37815;52.692;6.226;2023-10-13T08:16:28;18.10;99.90
51739;DHT22;37815;52.692;6.226;2023-10-13T08:21:48;18.20;99.90
51739;DHT22;37815;52.692;6.226;2023-10-13T08:27:20;18.20;99.90
51739;DHT22;37815;52.692;6.226;2023-10-13T08:32:40;18.20;99.90
51739;DHT22;37815;52.692;6.226;2023-10-13T08:37:57;18.20;99.90
51739;DHT22;37815;52.692;6.226;2023-10-13T08:43:05;18.20;99.90
51739;DHT22;37815;52.692;6.226;2023-10-13T08:48:07;18.20;99.90
51739;DHT22;37815;52.692;6.226;2023-10-13T08:53:08;18.30;99.90
51739;DHT22;37815;52.692;6.226;2023-10-13T08:58:26;18.30;99.90
51739;DHT22;37815;52.692;6.226;2023-10-13T09:03:47;18.30;99.90
51739;DHT22;37815;52.692;6.226;2023-10-13T09:08:50;18.40;99.90
51739;DHT22;37815;52.692;6.226;2023-10-13T09:14:13;18.40;99.90
51739;DHT22;37815;52.692;6.226;2023-10-13T09:19:42;18.40;99.90
51739;DHT22;37815;52.692;6.226;2023-10-13T09:24:45;18.40;99.90
51739;DHT22;37815;52.692;6.226;2023-10-13T09:29:55;18.50;99.90
51739;DHT22;37815;52.692;6.226;2023-10-13T09:35:01;18.50;99.90
51739;DHT22;37815;52.692;6.226;2023-10-13T09:40:03;18.50;99.90
51739;DHT22;37815;52.692;6.226;2023-10-13T09:45:07;18.50;99.90
51739;DHT22;37815;52.692;6.226;2023-10-13T09:50:13;18.60;99.90
51739;DHT22;37815;52.692;6.226;2023-10-13T09:55:29;18.60;99.90
51739;DHT22;37815;52.692;6.226;2023-10-13T10:00:32;18.70;99.90
51739;DHT22;37815;52.692;6.226;2023-10-13T10:06:00;18.70;99.90
51739;DHT22;37815;52.692;6.226;2023-10-13T10:16:45;18.80;99.90
51739;DHT22;37815;52.692;6.226;2023-10-13T10:21:49;18.80;99.90
51739;DHT22;37815;52.692;6.226;2023-10-13T10:26:52;18.90;99.90
51739;DHT22;37815;52.692;6.226;2023-10-13T10:31:52;19.00;99.90
51739;DHT22;37815;52.692;6.226;2023-10-13T10:36:54;19.00;99.90
51739;DHT22;37815;52.692;6.226;2023-10-13T10:41:55;19.00;99.90
51739;DHT22;37815;52.692;6.226;2023-10-13T10:47:12;19.00;99.90
51739;DHT22;37815;52.692;6.226;2023-10-13T10:52:31;19.00;99.90
51739;DHT22;37815;52.692;6.226;2023-10-13T10:57:37;19.00;99.90
51739;DHT22;37815;52.692;6.226;2023-10-13T11:02:38;19.00;99.90
51739;DHT22;37815;52.692;6.226;2023-10-13T11:07:45;19.10;99.90
51739;DHT22;37815;52.692;6.226;2023-10-13T11:12:55;19.00;99.90
51739;DHT22;37815;52.692;6.226;2023-10-13T11:17:56;19.10;99.90
51739;DHT22;37815;52.692;6.226;2023-10-13T11:22:59;19.10;99.90
51739;DHT22;37815;52.692;6.226;2023-10-13T11:28:14;19.10;99.90
51739;DHT22;37815;52.692;6.226;2023-10-13T11:33:18;19.10;99.90
51739;DHT22;37815;52.692;6.226;2023-10-13T11:38:29;19.20;99.90
51739;DHT22;37815;52.692;6.226;2023-10-13T11:48:44;19.20;99.90
51739;DHT22;37815;52.692;6.226;2023-10-13T11:53:45;19.20;99.90
51739;DHT22;37815;52.692;6.226;2023-10-13T11:58:47;19.20;99.90
51739;DHT22;37815;52.692;6.226;2023-10-13T12:03:49;19.10;99.90
51739;DHT22;37815;52.692;6.226;2023-10-13T12:09:09;19.20;99.90
51739;DHT22;37815;52.692;6.226;2023-10-13T12:14:19;19.20;99.90
51739;DHT22;37815;52.692;6.226;2023-10-13T12:19:30;19.20;99.90
51739;DHT22;37815;52.692;6.226;2023-10-13T12:24:30;19.20;99.90
51739;DHT22;37815;52.692;6.226;2023-10-13T12:29:40;19.20;99.90
51739;DHT22;37815;52.692;6.226;2023-10-13T12:34:46;19.20;99.90
51739;DHT22;37815;52.692;6.226;2023-10-13T12:39:59;19.20;99.90
51739;DHT22;37815;52.692;6.226;2023-10-13T12:45:26;19.20;99.90
51739;DHT22;37815;52.692;6.226;2023-10-13T12:50:45;19.20;99.90
51739;DHT22;37815;52.692;6.226;2023-10-13T12:55:57;19.20;99.90
51739;DHT22;37815;52.692;6.226;2023-10-13T13:01:01;19.20;99.90
51739;DHT22;37815;52.692;6.226;2023-10-13T13:06:06;19.20;99.90
51739;DHT22;37815;52.692;6.226;2023-10-13T13:11:07;19.20;99.90
51739;DHT22;37815;52.692;6.226;2023-10-13T13:16:08;19.20;99.90
51739;DHT22;37815;52.692;6.226;2023-10-13T13:21:10;19.20;99.90
51739;DHT22;37815;52.692;6.226;2023-10-13T13:26:13;19.30;99.90
51739;DHT22;37815;52.692;6.226;2023-10-13T13:31:17;19.30;99.90
51739;DHT22;37815;52.692;6.226;2023-10-13T13:36:17;19.30;99.90
51739;DHT22;37815;52.692;6.226;2023-10-13T13:41:19;19.20;99.90
51739;DHT22;37815;52.692;6.226;2023-10-13T13:46:21;19.20;99.90
51739;DHT22;37815;52.692;6.226;2023-10-13T13:51:26;19.20;99.90
51739;DHT22;37815;52.692;6.226;2023-10-13T13:56:28;19.20;99.90
51739;DHT22;37815;52.692;6.226;2023-10-13T14:01:31;19.20;99.90
51739;DHT22;37815;52.692;6.226;2023-10-13T14:06:34;19.20;99.90
51739;DHT22;37815;52.692;6.226;2023-10-13T14:11:35;19.20;99.90
51739;DHT22;37815;52.692;6.226;2023-10-13T14:16:39;19.20;99.90
51739;DHT22;37815;52.692;6.226;2023-10-13T14:21:45;19.20;99.90
51739;DHT22;37815;52.692;6.226;2023-10-13T14:27:11;19.30;99.90
51739;DHT22;37815;52.692;6.226;2023-10-13T14:32:14;19.20;99.90
51739;DHT22;37815;52.692;6.226;2023-10-13T14:37:17;19.20;99.90
51739;DHT22;37815;52.692;6.226;2023-10-13T14:42:27;19.30;99.90
51739;DHT22;37815;52.692;6.226;2023-10-13T14:47:28;19.30;99.90
51739;DHT22;37815;52.692;6.226;2023-10-13T14:52:29;19.30;99.90
51739;DHT22;37815;52.692;6.226;2023-10-13T14:57:32;19.30;99.90
51739;DHT22;37815;52.692;6.226;2023-10-13T15:02:38;19.30;99.90
51739;DHT22;37815;52.692;6.226;2023-10-13T15:07:38;19.20;99.90
51739;DHT22;37815;52.692;6.226;2023-10-13T15:12:44;19.20;99.90
51739;DHT22;37815;52.692;6.226;2023-10-13T15:17:45;19.20;99.90
51739;DHT22;37815;52.692;6.226;2023-10-13T15:22:46;19.20;99.90
51739;DHT22;37815;52.692;6.226;2023-10-13T15:27:50;19.20;99.90
51739;DHT22;37815;52.692;6.226;2023-10-13T15:32:55;19.20;99.90
51739;DHT22;37815;52.692;6.226;2023-10-13T15:37:57;19.20;99.90
51739;DHT22;37815;52.692;6.226;2023-10-13T15:42:58;19.20;99.90
51739;DHT22;37815;52.692;6.226;2023-10-13T15:48:00;19.20;99.90
51739;DHT22;37815;52.692;6.226;2023-10-13T15:53:05;19.20;99.90
51739;DHT22;37815;52.692;6.226;2023-10-13T15:58:07;19.20;99.90
51739;DHT22;37815;52.692;6.226;2023-10-13T16:03:07;19.20;99.90
51739;DHT22;37815;52.692;6.226;2023-10-13T16:08:11;19.10;99.90
51739;DHT22;37815;52.692;6.226;2023-10-13T16:13:12;19.10;99.90
51739;DHT22;37815;52.692;6.226;2023-10-13T16:18:15;19.10;99.90
51739;DHT22;37815;52.692;6.226;2023-10-13T16:23:22;19.10;99.90
51739;DHT22;37815;52.692;6.226;2023-10-13T16:28:24;19.10;99.90
51739;DHT22;37815;52.692;6.226;2023-10-13T16:33:25;19.10;99.90
51739;DHT22;37815;52.692;6.226;2023-10-13T16:38:25;19.10;99.90
51739;DHT22;37815;52.692;6.226;2023-10-13T16:43:26;19.10;99.90
51739;DHT22;37815;52.692;6.226;2023-10-13T16:48:26;19.10;99.90
51739;DHT22;37815;52.692;6.226;2023-10-13T16:53:27;19.10;99.90
51739;DHT22;37815;52.692;6.226;2023-10-13T16:58:28;19.10;99.90
51739;DHT22;37815;52.692;6.226;2023-10-13T17:03:31;19.10;99.90
51739;DHT22;37815;52.692;6.226;2023-10-13T17:08:31;19.10;99.90
51739;DHT22;37815;52.692;6.226;2023-10-13T17:13:32;19.20;99.90
51739;DHT22;37815;52.692;6.226;2023-10-13T17:18:33;19.10;99.90
51739;DHT22;37815;52.692;6.226;2023-10-13T17:23:33;19.00;99.90
51739;DHT22;37815;52.692;6.226;2023-10-13T17:28:34;19.10;99.90
51739;DHT22;37815;52.692;6.226;2023-10-13T17:33:36;19.10;99.90
51739;DHT22;37815;52.692;6.226;2023-10-13T17:38:39;19.20;99.90
51739;DHT22;37815;52.692;6.226;2023-10-13T17:43:40;19.20;99.90
51739;DHT22;37815;52.692;6.226;2023-10-13T17:48:41;19.20;99.90
51739;DHT22;37815;52.692;6.226;2023-10-13T17:53:44;19.20;99.90
51739;DHT22;37815;52.692;6.226;2023-10-13T17:58:46;19.20;99.90
51739;DHT22;37815;52.692;6.226;2023-10-13T18:03:48;19.20;99.90
51739;DHT22;37815;52.692;6.226;2023-10-13T18:08:51;19.20;99.90
51739;DHT22;37815;52.692;6.226;2023-10-13T18:13:52;19.20;99.90
51739;DHT22;37815;52.692;6.226;2023-10-13T18:18:52;19.10;99.90
51739;DHT22;37815;52.692;6.226;2023-10-13T18:23:56;19.20;99.90
51739;DHT22;37815;52.692;6.226;2023-10-13T18:28:56;19.10;99.90
51739;DHT22;37815;52.692;6.226;2023-10-13T18:33:58;19.10;99.90
51739;DHT22;37815;52.692;6.226;2023-10-13T18:38:59;19.10;99.90
51739;DHT22;37815;52.692;6.226;2023-10-13T18:43:59;19.20;99.90
51739;DHT22;37815;52.692;6.226;2023-10-13T18:49:01;19.20;99.90
51739;DHT22;37815;52.692;6.226;2023-10-13T18:54:02;19.20;99.90
51739;DHT22;37815;52.692;6.226;2023-10-13T18:59:03;19.10;99.90
51739;DHT22;37815;52.692;6.226;2023-10-13T19:04:05;19.10;99.90
51739;DHT22;37815;52.692;6.226;2023-10-13T19:09:08;19.10;99.90
51739;DHT22;37815;52.692;6.226;2023-10-13T19:14:09;19.20;99.90
51739;DHT22;37815;52.692;6.226;2023-10-13T19:19:12;19.10;99.90
51739;DHT22;37815;52.692;6.226;2023-10-13T19:24:13;19.10;99.90
51739;DHT22;37815;52.692;6.226;2023-10-13T19:29:15;19.10;99.90
51739;DHT22;37815;52.692;6.226;2023-10-13T19:34:18;19.10;99.90
51739;DHT22;37815;52.692;6.226;2023-10-13T19:39:19;19.00;99.90
51739;DHT22;37815;52.692;6.226;2023-10-13T19:44:21;19.10;99.90
51739;DHT22;37815;52.692;6.226;2023-10-13T19:49:22;19.10;99.90
51739;DHT22;37815;52.692;6.226;2023-10-13T19:54:25;19.10;99.90
51739;DHT22;37815;52.692;6.226;2023-10-13T19:59:27;19.10;99.90
51739;DHT22;37815;52.692;6.226;2023-10-13T20:04:28;19.10;99.90
51739;DHT22;37815;52.692;6.226;2023-10-13T20:09:29;19.10;99.90
51739;DHT22;37815;52.692;6.226;2023-10-13T20:14:30;19.10;99.90
51739;DHT22;37815;52.692;6.226;2023-10-13T20:19:32;19.10;99.90
51739;DHT22;37815;52.692;6.226;2023-10-13T20:24:33;19.00;99.90
51739;DHT22;37815;52.692;6.226;2023-10-13T20:29:33;19.10;99.90
51739;DHT22;37815;52.692;6.226;2023-10-13T20:34:34;19.10;99.90
51739;DHT22;37815;52.692;6.226;2023-10-13T20:39:35;19.10;99.90
51739;DHT22;37815;52.692;6.226;2023-10-13T20:44:35;19.10;99.90
51739;DHT22;37815;52.692;6.226;2023-10-13T20:49:37;19.10;99.90
51739;DHT22;37815;52.692;6.226;2023-10-13T20:54:43;19.00;99.90
51739;DHT22;37815;52.692;6.226;2023-10-13T20:59:45;19.00;99.90
51739;DHT22;37815;52.692;6.226;2023-10-13T21:04:46;19.00;99.90
51739;DHT22;37815;52.692;6.226;2023-10-13T21:09:46;19.00;99.90
51739;DHT22;37815;52.692;6.226;2023-10-13T21:14:47;19.00;99.90
51739;DHT22;37815;52.692;6.226;2023-10-13T21:19:48;19.00;99.90
51739;DHT22;37815;52.692;6.226;2023-10-13T21:24:49;19.00;99.90
51739;DHT22;37815;52.692;6.226;2023-10-13T21:29:50;18.90;99.90
51739;DHT22;37815;52.692;6.226;2023-10-13T21:34:51;18.90;99.90
51739;DHT22;37815;52.692;6.226;2023-10-13T21:39:52;18.90;99.90
51739;DHT22;37815;52.692;6.226;2023-10-13T21:44:52;18.90;99.90
51739;DHT22;37815;52.692;6.226;2023-10-13T21:49:56;18.90;99.90
51739;DHT22;37815;52.692;6.226;2023-10-13T21:54:58;18.90;99.90
51739;DHT22;37815;52.692;6.226;2023-10-13T21:59:59;18.90;99.90
51739;DHT22;37815;52.692;6.226;2023-10-13T22:05:00;18.90;99.90
51739;DHT22;37815;52.692;6.226;2023-10-13T22:10:01;18.90;99.90
51739;DHT22;37815;52.692;6.226;2023-10-13T22:15:02;18.90;99.90
51739;DHT22;37815;52.692;6.226;2023-10-13T22:20:03;18.80;99.90
51739;DHT22;37815;52.692;6.226;2023-10-13T22:25:05;18.80;99.90
51739;DHT22;37815;52.692;6.226;2023-10-13T22:30:14;18.80;99.90
51739;DHT22;37815;52.692;6.226;2023-10-13T22:35:18;18.80;99.90
51739;DHT22;37815;52.692;6.226;2023-10-13T22:40:21;18.80;99.90
51739;DHT22;37815;52.692;6.226;2023-10-13T22:45:22;18.70;99.90
51739;DHT22;37815;52.692;6.226;2023-10-13T22:50:24;18.70;99.90
51739;DHT22;37815;52.692;6.226;2023-10-13T22:55:28;18.60;99.90
51739;DHT22;37815;52.692;6.226;2023-10-13T23:00:28;18.60;99.90
51739;DHT22;37815;52.692;6.226;2023-10-13T23:05:55;18.60;99.90
51739;DHT22;37815;52.692;6.226;2023-10-13T23:11:03;18.60;99.90
51739;DHT22;37815;52.692;6.226;2023-10-13T23:16:27;18.60;99.90
51739;DHT22;37815;52.692;6.226;2023-10-13T23:21:28;18.60;99.90
51739;DHT22;37815;52.692;6.226;2023-10-13T23:26:28;18.50;99.90
51739;DHT22;37815;52.692;6.226;2023-10-13T23:31:29;18.50;99.90
51739;DHT22;37815;52.692;6.226;2023-10-13T23:36:29;18.50;99.90
51739;DHT22;37815;52.692;6.226;2023-10-13T23:41:30;18.50;99.90
51739;DHT22;37815;52.692;6.226;2023-10-13T23:46:31;18.50;99.90
51739;DHT22;37815;52.692;6.226;2023-10-13T23:51:35;18.50;99.90
51739;DHT22;37815;52.692;6.226;2023-10-13T23:56:36;18.50;99.90
